Kezdőlap
METAR-TAF:

METAR-TAF

Repülőterek :

Ushuaia, Argentína

földrajzi szélesség: 54-48S, földrajzi hosszúság: 068-19W, magasság: 16 m

Jelenlegi meteorológiai megfigyelések

A jelentés 28 perccel ezelõtt készült, 05:00 UTC
Szélcsend
Hőmérséklet 11°C
Páratartalom 58%
Légköri nyomás 993 hPa
Látótávolság 10 km, vagy több
Szórványos felhőzet 4500 lábon
Szakadozott felhőzet 10000 lábon

METAR: SAWH 100500Z 00000KT 9999 SCT045 BKN100 11/03 Q0993

Idő: 02:28 (05:28 UTC)

Előrejelzés

A jelentés 6 órával és 28 perccel ezelõtt készült, 23:00 UTC
Az előrejelzés 10-én 00 óra UTC és 10-én 24 óra UTC között érvényes
Nyugati szél 10 kt
Látótávolság 10 km, vagy több
Szakadozott felhőzet 2500 lábon
Szakadozott felhőzet 4000 lábon
10-én 12 óra UTC és 10-én 12 óra UTC között fokozatosan kialakuló
Északnyugati szél 20 kt

TAF: SAWH 092300Z 1000/1024 28010KT 9999 BKN025 BKN040 TX20/1019Z TN08/1010Z BECMG 1012/1012 32020KT

Meteorológiai megfigyelések és előrejelzések több, mint 4000 repülőtéren (METAR és TAF jelentéseket).

A térképen piros és sárga pontok jelzik az elérhető meteorológiai állomásokat.

Mozgassa az egeret a pont fölött, hogy megjelenjen az állomás neve.

Azután kattintson az időjárási megfigyelések és előrejelzések megtekintéséhez.

A térkép megváltoztatása: kattintson a fekete keresztel jelölt zöld gombra ráközelítéshez, a vonallal jelölt zöld gombra távolításhoz, vagy a zöld nyilakra a szomszédos térképek eléréséhez.


METAR-TAF: